sensor_id;sensor_type;location;lat;lon;timestamp;temperature;humidity
8253;DHT22;61313;48.396;10.008;2022-12-18T00:00:31;-3.20;1.00
8253;DHT22;61313;48.396;10.008;2022-12-18T00:02:57;-2.90;99.90
8253;DHT22;61313;48.396;10.008;2022-12-18T00:05:23;-3.00;1.00
8253;DHT22;61313;48.396;10.008;2022-12-18T00:07:48;-3.20;1.00
8253;DHT22;61313;48.396;10.008;2022-12-18T00:10:14;-2.90;99.90
8253;DHT22;61313;48.396;10.008;2022-12-18T00:12:40;-2.70;99.90
8253;DHT22;61313;48.396;10.008;2022-12-18T00:15:06;-3.10;99.90
8253;DHT22;61313;48.396;10.008;2022-12-18T00:17:31;-3.30;1.00
8253;DHT22;61313;48.396;10.008;2022-12-18T00:19:57;-2.90;99.90
8253;DHT22;61313;48.396;10.008;2022-12-18T04:06:45;-5.50;1.00
8253;DHT22;61313;48.396;10.008;2022-12-18T04:09:12;-5.70;1.00
8253;DHT22;61313;48.396;10.008;2022-12-18T04:11:39;-5.70;1.00
8253;DHT22;61313;48.396;10.008;2022-12-18T04:14:05;-5.40;1.00
8253;DHT22;61313;48.396;10.008;2022-12-18T04:16:30;-5.00;1.00
8253;DHT22;61313;48.396;10.008;2022-12-18T04:18:56;-4.60;1.00
8253;DHT22;61313;48.396;10.008;2022-12-18T04:21:22;-4.20;99.90
8253;DHT22;61313;48.396;10.008;2022-12-18T04:23:48;-4.10;1.00
8253;DHT22;61313;48.396;10.008;2022-12-18T04:26:13;-4.30;1.00
8253;DHT22;61313;48.396;10.008;2022-12-18T04:28:39;-4.70;1.00
8253;DHT22;61313;48.396;10.008;2022-12-18T04:31:05;-5.10;99.90
8253;DHT22;61313;48.396;10.008;2022-12-18T04:33:31;-5.30;99.90
8253;DHT22;61313;48.396;10.008;2022-12-18T04:35:56;-5.70;1.00
8253;DHT22;61313;48.396;10.008;2022-12-18T04:38:22;-5.80;1.00
8253;DHT22;61313;48.396;10.008;2022-12-18T04:40:48;-5.00;1.00
8253;DHT22;61313;48.396;10.008;2022-12-18T04:43:13;-4.50;20.30
8253;DHT22;61313;48.396;10.008;2022-12-18T04:45:39;-4.40;99.90
8253;DHT22;61313;48.396;10.008;2022-12-18T04:48:05;-4.00;28.10
8253;DHT22;61313;48.396;10.008;2022-12-18T04:50:31;-3.70;1.00
8253;DHT22;61313;48.396;10.008;2022-12-18T04:52:56;-3.70;73.60
8253;DHT22;61313;48.396;10.008;2022-12-18T04:55:22;-3.70;1.00
8253;DHT22;61313;48.396;10.008;2022-12-18T04:57:48;-3.90;1.00
8253;DHT22;61313;48.396;10.008;2022-12-18T05:00:14;-3.80;99.90
8253;DHT22;61313;48.396;10.008;2022-12-18T05:02:40;-3.50;1.00
8253;DHT22;61313;48.396;10.008;2022-12-18T05:05:06;-3.60;99.90
8253;DHT22;61313;48.396;10.008;2022-12-18T05:07:31;-3.60;99.90
8253;DHT22;61313;48.396;10.008;2022-12-18T05:09:57;-3.60;99.90
8253;DHT22;61313;48.396;10.008;2022-12-18T05:12:23;-3.60;1.00
8253;DHT22;61313;48.396;10.008;2022-12-18T05:14:48;-3.70;1.00
8253;DHT22;61313;48.396;10.008;2022-12-18T05:17:14;-3.50;99.90
8253;DHT22;61313;48.396;10.008;2022-12-18T05:19:40;-3.30;1.00
8253;DHT22;61313;48.396;10.008;2022-12-18T05:22:05;-3.30;1.00
8253;DHT22;61313;48.396;10.008;2022-12-18T05:24:31;-3.60;1.00
8253;DHT22;61313;48.396;10.008;2022-12-18T05:26:57;-3.50;99.90
8253;DHT22;61313;48.396;10.008;2022-12-18T05:29:23;-3.70;1.00
8253;DHT22;61313;48.396;10.008;2022-12-18T05:31:48;-3.40;23.90
8253;DHT22;61313;48.396;10.008;2022-12-18T05:34:14;-3.30;1.00
8253;DHT22;61313;48.396;10.008;2022-12-18T05:36:40;-3.60;1.00
8253;DHT22;61313;48.396;10.008;2022-12-18T05:39:05;-3.40;1.00
8253;DHT22;61313;48.396;10.008;2022-12-18T05:41:32;-3.50;99.90
8253;DHT22;61313;48.396;10.008;2022-12-18T05:43:58;-3.30;1.00
8253;DHT22;61313;48.396;10.008;2022-12-18T05:46:24;-3.20;1.00
8253;DHT22;61313;48.396;10.008;2022-12-18T05:48:50;-3.20;1.00
8253;DHT22;61313;48.396;10.008;2022-12-18T05:51:19;-3.10;1.00
8253;DHT22;61313;48.396;10.008;2022-12-18T05:53:45;-3.20;1.00
8253;DHT22;61313;48.396;10.008;2022-12-18T05:56:16;-3.30;1.00
8253;DHT22;61313;48.396;10.008;2022-12-18T05:58:42;-3.80;1.00
8253;DHT22;61313;48.396;10.008;2022-12-18T06:01:11;-4.30;1.00
8253;DHT22;61313;48.396;10.008;2022-12-18T06:03:38;-3.80;99.90
8253;DHT22;61313;48.396;10.008;2022-12-18T06:06:12;-3.60;99.90
8253;DHT22;61313;48.396;10.008;2022-12-18T06:08:38;-3.90;99.90
8253;DHT22;61313;48.396;10.008;2022-12-18T06:11:03;-3.60;99.90
8253;DHT22;61313;48.396;10.008;2022-12-18T06:13:29;-3.30;99.90
8253;DHT22;61313;48.396;10.008;2022-12-18T06:15:54;-3.20;1.00
8253;DHT22;61313;48.396;10.008;2022-12-18T06:18:20;-3.10;1.00
8253;DHT22;61313;48.396;10.008;2022-12-18T06:20:57;-3.20;1.00
8253;DHT22;61313;48.396;10.008;2022-12-18T06:23:23;-3.30;1.00
8253;DHT22;61313;48.396;10.008;2022-12-18T06:25:48;-3.20;1.00
8253;DHT22;61313;48.396;10.008;2022-12-18T06:28:14;-3.20;1.00
8253;DHT22;61313;48.396;10.008;2022-12-18T06:30:42;-2.90;1.00
8253;DHT22;61313;48.396;10.008;2022-12-18T06:33:08;-3.00;1.00
8253;DHT22;61313;48.396;10.008;2022-12-18T06:35:34;-3.00;1.00
8253;DHT22;61313;48.396;10.008;2022-12-18T06:38:01;-2.90;1.00
8253;DHT22;61313;48.396;10.008;2022-12-18T06:40:27;-3.00;1.00
8253;DHT22;61313;48.396;10.008;2022-12-18T06:42:52;-3.10;1.00
8253;DHT22;61313;48.396;10.008;2022-12-18T06:45:18;-3.10;1.00
8253;DHT22;61313;48.396;10.008;2022-12-18T06:47:44;-3.00;1.00
8253;DHT22;61313;48.396;10.008;2022-12-18T06:50:09;-3.00;1.00
8253;DHT22;61313;48.396;10.008;2022-12-18T06:52:35;-3.00;1.00
8253;DHT22;61313;48.396;10.008;2022-12-18T06:55:02;-3.10;99.90
8253;DHT22;61313;48.396;10.008;2022-12-18T06:57:28;-3.10;1.00
8253;DHT22;61313;48.396;10.008;2022-12-18T06:59:54;-2.90;1.00
8253;DHT22;61313;48.396;10.008;2022-12-18T07:02:19;-2.90;1.00
8253;DHT22;61313;48.396;10.008;2022-12-18T07:04:45;-2.70;1.00
8253;DHT22;61313;48.396;10.008;2022-12-18T07:07:11;-2.70;99.90
8253;DHT22;61313;48.396;10.008;2022-12-18T07:09:36;-2.60;99.90
8253;DHT22;61313;48.396;10.008;2022-12-18T07:12:02;-3.20;1.00
8253;DHT22;61313;48.396;10.008;2022-12-18T07:14:28;-3.50;99.90
8253;DHT22;61313;48.396;10.008;2022-12-18T07:16:53;-3.10;99.90
8253;DHT22;61313;48.396;10.008;2022-12-18T07:19:19;-2.90;85.60
8253;DHT22;61313;48.396;10.008;2022-12-18T07:21:45;-2.90;1.00
8253;DHT22;61313;48.396;10.008;2022-12-18T07:24:11;-2.70;1.00
8253;DHT22;61313;48.396;10.008;2022-12-18T07:26:37;-2.60;1.00
8253;DHT22;61313;48.396;10.008;2022-12-18T07:29:03;-2.40;1.00
8253;DHT22;61313;48.396;10.008;2022-12-18T07:31:28;-3.00;99.90
8253;DHT22;61313;48.396;10.008;2022-12-18T07:33:54;-2.90;1.00
8253;DHT22;61313;48.396;10.008;2022-12-18T07:36:20;-2.90;1.00
8253;DHT22;61313;48.396;10.008;2022-12-18T07:38:50;-2.70;1.00
8253;DHT22;61313;48.396;10.008;2022-12-18T07:41:16;-2.70;1.00
8253;DHT22;61313;48.396;10.008;2022-12-18T07:43:44;-2.60;1.00
8253;DHT22;61313;48.396;10.008;2022-12-18T07:46:11;-2.50;1.00
8253;DHT22;61313;48.396;10.008;2022-12-18T07:48:39;-2.60;1.00
8253;DHT22;61313;48.396;10.008;2022-12-18T07:51:06;-2.60;1.00
8253;DHT22;61313;48.396;10.008;2022-12-18T07:53:32;-2.60;1.00
8253;DHT22;61313;48.396;10.008;2022-12-18T07:55:59;-2.50;1.00
8253;DHT22;61313;48.396;10.008;2022-12-18T07:58:25;-2.70;1.00
8253;DHT22;61313;48.396;10.008;2022-12-18T08:00:51;-2.80;99.90
8253;DHT22;61313;48.396;10.008;2022-12-18T08:03:18;-3.00;1.00
8253;DHT22;61313;48.396;10.008;2022-12-18T08:05:43;-3.00;99.90
8253;DHT22;61313;48.396;10.008;2022-12-18T08:08:10;-2.90;1.00
8253;DHT22;61313;48.396;10.008;2022-12-18T08:10:36;-2.60;99.90
8253;DHT22;61313;48.396;10.008;2022-12-18T08:13:02;-2.80;1.00
8253;DHT22;61313;48.396;10.008;2022-12-18T08:15:28;-2.90;47.60
8253;DHT22;61313;48.396;10.008;2022-12-18T08:17:56;-3.00;1.80
8253;DHT22;61313;48.396;10.008;2022-12-18T08:20:22;-3.40;1.00
8253;DHT22;61313;48.396;10.008;2022-12-18T08:22:48;-3.20;99.90
8253;DHT22;61313;48.396;10.008;2022-12-18T08:25:13;-3.10;1.00
8253;DHT22;61313;48.396;10.008;2022-12-18T08:27:39;-3.00;1.00
8253;DHT22;61313;48.396;10.008;2022-12-18T08:30:05;-2.50;1.00
8253;DHT22;61313;48.396;10.008;2022-12-18T08:32:31;-2.60;99.90
8253;DHT22;61313;48.396;10.008;2022-12-18T08:34:58;-2.60;99.90
8253;DHT22;61313;48.396;10.008;2022-12-18T08:37:24;-2.40;99.90
8253;DHT22;61313;48.396;10.008;2022-12-18T08:39:50;-2.60;99.90
8253;DHT22;61313;48.396;10.008;2022-12-18T08:42:15;-2.70;1.00
8253;DHT22;61313;48.396;10.008;2022-12-18T08:45:00;-2.60;1.00
8253;DHT22;61313;48.396;10.008;2022-12-18T08:47:25;-2.70;1.00
8253;DHT22;61313;48.396;10.008;2022-12-18T08:49:51;-2.70;80.20
8253;DHT22;61313;48.396;10.008;2022-12-18T08:52:17;-2.70;1.00
8253;DHT22;61313;48.396;10.008;2022-12-18T08:54:43;-2.70;1.00
8253;DHT22;61313;48.396;10.008;2022-12-18T08:57:08;-2.60;1.00
8253;DHT22;61313;48.396;10.008;2022-12-18T08:59:34;-2.70;57.70
8253;DHT22;61313;48.396;10.008;2022-12-18T09:01:59;-2.40;1.00
8253;DHT22;61313;48.396;10.008;2022-12-18T09:04:25;-2.60;1.00
8253;DHT22;61313;48.396;10.008;2022-12-18T09:06:51;-2.30;1.00
8253;DHT22;61313;48.396;10.008;2022-12-18T09:09:16;-2.40;5.30
8253;DHT22;61313;48.396;10.008;2022-12-18T09:11:42;-2.40;1.00
8253;DHT22;61313;48.396;10.008;2022-12-18T09:14:09;-2.50;1.00
8253;DHT22;61313;48.396;10.008;2022-12-18T09:16:35;-2.50;1.00
8253;DHT22;61313;48.396;10.008;2022-12-18T09:19:02;-2.60;1.00
8253;DHT22;61313;48.396;10.008;2022-12-18T09:21:30;-2.40;1.00
8253;DHT22;61313;48.396;10.008;2022-12-18T09:23:56;-2.30;1.00
8253;DHT22;61313;48.396;10.008;2022-12-18T09:26:23;-2.50;99.90
8253;DHT22;61313;48.396;10.008;2022-12-18T09:28:50;-2.30;99.90
8253;DHT22;61313;48.396;10.008;2022-12-18T09:31:17;-2.50;1.00
8253;DHT22;61313;48.396;10.008;2022-12-18T09:33:43;-2.30;99.90
8253;DHT22;61313;48.396;10.008;2022-12-18T09:36:12;-2.40;99.90
8253;DHT22;61313;48.396;10.008;2022-12-18T09:38:38;-2.40;1.00
8253;DHT22;61313;48.396;10.008;2022-12-18T09:44:49;-2.50;99.90
8253;DHT22;61313;48.396;10.008;2022-12-18T09:47:15;-3.00;1.00
8253;DHT22;61313;48.396;10.008;2022-12-18T09:49:48;-2.80;39.30
8253;DHT22;61313;48.396;10.008;2022-12-18T09:55:05;-2.60;1.00
8253;DHT22;61313;48.396;10.008;2022-12-18T09:57:39;-2.50;1.00
8253;DHT22;61313;48.396;10.008;2022-12-18T10:00:18;-2.40;1.00
8253;DHT22;61313;48.396;10.008;2022-12-18T10:02:45;-2.30;1.00
8253;DHT22;61313;48.396;10.008;2022-12-18T10:05:17;-2.30;1.00
8253;DHT22;61313;48.396;10.008;2022-12-18T10:10:47;-2.10;1.00
8253;DHT22;61313;48.396;10.008;2022-12-18T10:21:15;-2.10;99.90
8253;DHT22;61313;48.396;10.008;2022-12-18T10:26:41;-2.00;99.90
8253;DHT22;61313;48.396;10.008;2022-12-18T10:29:15;-2.20;1.00
8253;DHT22;61313;48.396;10.008;2022-12-18T10:31:41;-2.20;1.00
8253;DHT22;61313;48.396;10.008;2022-12-18T10:34:10;-2.10;1.00
8253;DHT22;61313;48.396;10.008;2022-12-18T10:36:37;-1.90;1.00
8253;DHT22;61313;48.396;10.008;2022-12-18T10:39:21;-1.80;1.00
8253;DHT22;61313;48.396;10.008;2022-12-18T10:41:48;-2.00;99.90
8253;DHT22;61313;48.396;10.008;2022-12-18T10:44:17;-2.10;99.90
8253;DHT22;61313;48.396;10.008;2022-12-18T10:46:45;-2.00;1.00
8253;DHT22;61313;48.396;10.008;2022-12-18T10:49:29;-2.00;22.70
8253;DHT22;61313;48.396;10.008;2022-12-18T10:52:19;-2.10;99.90
8253;DHT22;61313;48.396;10.008;2022-12-18T10:54:54;-2.40;1.00
8253;DHT22;61313;48.396;10.008;2022-12-18T10:57:30;-1.90;1.00
8253;DHT22;61313;48.396;10.008;2022-12-18T10:59:58;-1.50;99.90
8253;DHT22;61313;48.396;10.008;2022-12-18T11:02:35;-1.50;99.90
8253;DHT22;61313;48.396;10.008;2022-12-18T11:05:02;-1.40;1.00
8253;DHT22;61313;48.396;10.008;2022-12-18T11:07:48;-1.50;1.00
8253;DHT22;61313;48.396;10.008;2022-12-18T11:10:20;-1.30;99.90
8253;DHT22;61313;48.396;10.008;2022-12-18T11:12:46;-1.50;1.00
8253;DHT22;61313;48.396;10.008;2022-12-18T11:15:20;-1.50;1.00
8253;DHT22;61313;48.396;10.008;2022-12-18T11:17:50;-1.60;99.90
8253;DHT22;61313;48.396;10.008;2022-12-18T11:20:30;-1.80;1.00
8253;DHT22;61313;48.396;10.008;2022-12-18T11:23:01;-1.80;99.90
8253;DHT22;61313;48.396;10.008;2022-12-18T11:25:29;-2.10;99.90
8253;DHT22;61313;48.396;10.008;2022-12-18T11:27:58;-1.90;99.90
8253;DHT22;61313;48.396;10.008;2022-12-18T11:35:37;-1.40;1.00
8253;DHT22;61313;48.396;10.008;2022-12-18T11:38:20;-1.30;1.00
8253;DHT22;61313;48.396;10.008;2022-12-18T11:43:38;-1.00;1.00
8253;DHT22;61313;48.396;10.008;2022-12-18T11:49:22;-1.20;99.90
8253;DHT22;61313;48.396;10.008;2022-12-18T11:54:22;-1.20;99.90
8253;DHT22;61313;48.396;10.008;2022-12-18T12:05:23;-1.10;9.30
8253;DHT22;61313;48.396;10.008;2022-12-18T12:08:19;-0.90;1.00
8253;DHT22;61313;48.396;10.008;2022-12-18T12:10:54;-0.90;1.00
8253;DHT22;61313;48.396;10.008;2022-12-18T12:14:03;-1.10;1.00
8253;DHT22;61313;48.396;10.008;2022-12-18T12:16:28;-1.30;94.40
8253;DHT22;61313;48.396;10.008;2022-12-18T12:21:42;-1.20;99.90
8253;DHT22;61313;48.396;10.008;2022-12-18T12:27:00;-1.10;59.60
8253;DHT22;61313;48.396;10.008;2022-12-18T12:40:12;-1.80;1.00
8253;DHT22;61313;48.396;10.008;2022-12-18T12:42:44;-1.70;1.00
8253;DHT22;61313;48.396;10.008;2022-12-18T12:50:55;-1.80;57.40
8253;DHT22;61313;48.396;10.008;2022-12-18T12:53:27;-1.60;1.00
8253;DHT22;61313;48.396;10.008;2022-12-18T12:55:53;0.20;1.00
8253;DHT22;61313;48.396;10.008;2022-12-18T12:58:26;-0.80;1.00
8253;DHT22;61313;48.396;10.008;2022-12-18T13:06:56;-0.90;1.00
8253;DHT22;61313;48.396;10.008;2022-12-18T13:09:24;-1.30;38.60
8253;DHT22;61313;48.396;10.008;2022-12-18T13:11:50;-1.60;99.90
8253;DHT22;61313;48.396;10.008;2022-12-18T13:14:35;-1.60;99.90
8253;DHT22;61313;48.396;10.008;2022-12-18T13:19:49;-1.70;1.00
8253;DHT22;61313;48.396;10.008;2022-12-18T13:22:25;-2.00;99.90
8253;DHT22;61313;48.396;10.008;2022-12-18T13:24:54;-1.60;1.00
8253;DHT22;61313;48.396;10.008;2022-12-18T13:27:57;-1.50;1.00
8253;DHT22;61313;48.396;10.008;2022-12-18T13:38:37;-2.00;99.90
8253;DHT22;61313;48.396;10.008;2022-12-18T13:43:46;-1.90;41.20
8253;DHT22;61313;48.396;10.008;2022-12-18T13:51:17;-2.20;1.00
8253;DHT22;61313;48.396;10.008;2022-12-18T13:53:50;-1.90;99.90
8253;DHT22;61313;48.396;10.008;2022-12-18T13:56:26;-1.70;1.00
8253;DHT22;61313;48.396;10.008;2022-12-18T13:59:12;-1.80;99.90
8253;DHT22;61313;48.396;10.008;2022-12-18T14:01:58;-1.80;1.00
8253;DHT22;61313;48.396;10.008;2022-12-18T14:04:29;-1.60;99.90
8253;DHT22;61313;48.396;10.008;2022-12-18T14:07:07;-1.60;99.90
8253;DHT22;61313;48.396;10.008;2022-12-18T14:09:37;-1.70;99.90
8253;DHT22;61313;48.396;10.008;2022-12-18T14:12:05;-2.00;1.00
8253;DHT22;61313;48.396;10.008;2022-12-18T14:14:51;-2.10;1.00
8253;DHT22;61313;48.396;10.008;2022-12-18T14:17:17;-1.90;1.00
8253;DHT22;61313;48.396;10.008;2022-12-18T14:19:45;-1.80;1.00
8253;DHT22;61313;48.396;10.008;2022-12-18T14:22:25;-1.50;1.00
8253;DHT22;61313;48.396;10.008;2022-12-18T14:25:26;-1.40;1.00
8253;DHT22;61313;48.396;10.008;2022-12-18T14:30:35;-1.60;1.00
8253;DHT22;61313;48.396;10.008;2022-12-18T14:35:27;-1.90;1.00
8253;DHT22;61313;48.396;10.008;2022-12-18T14:37:59;-2.10;99.90
8253;DHT22;61313;48.396;10.008;2022-12-18T14:40:32;-2.20;1.00
8253;DHT22;61313;48.396;10.008;2022-12-18T14:42:58;-2.30;1.00
8253;DHT22;61313;48.396;10.008;2022-12-18T14:45:37;-2.00;1.00
8253;DHT22;61313;48.396;10.008;2022-12-18T14:48:30;-1.80;1.00
8253;DHT22;61313;48.396;10.008;2022-12-18T14:51:01;-1.90;1.00
8253;DHT22;61313;48.396;10.008;2022-12-18T14:56:27;-2.10;99.90
8253;DHT22;61313;48.396;10.008;2022-12-18T14:59:04;-2.00;1.00
8253;DHT22;61313;48.396;10.008;2022-12-18T15:01:39;-2.00;1.00
8253;DHT22;61313;48.396;10.008;2022-12-18T15:04:39;-1.90;99.90
8253;DHT22;61313;48.396;10.008;2022-12-18T15:07:17;-2.10;99.90
8253;DHT22;61313;48.396;10.008;2022-12-18T15:09:44;-2.10;1.00
8253;DHT22;61313;48.396;10.008;2022-12-18T15:15:05;-2.00;1.00
8253;DHT22;61313;48.396;10.008;2022-12-18T15:17:31;-2.20;1.00
8253;DHT22;61313;48.396;10.008;2022-12-18T15:20:02;-2.20;1.00
8253;DHT22;61313;48.396;10.008;2022-12-18T15:22:31;-1.90;1.00
8253;DHT22;61313;48.396;10.008;2022-12-18T15:24:58;-1.70;99.90
8253;DHT22;61313;48.396;10.008;2022-12-18T15:27:31;-1.80;1.00
8253;DHT22;61313;48.396;10.008;2022-12-18T15:32:26;-1.40;1.00
8253;DHT22;61313;48.396;10.008;2022-12-18T15:35:13;-1.10;99.90
8253;DHT22;61313;48.396;10.008;2022-12-18T15:37:40;-1.50;1.00
8253;DHT22;61313;48.396;10.008;2022-12-18T15:40:08;-1.70;1.00
8253;DHT22;61313;48.396;10.008;2022-12-18T15:42:37;-1.50;1.00
8253;DHT22;61313;48.396;10.008;2022-12-18T15:45:21;-1.50;1.00
8253;DHT22;61313;48.396;10.008;2022-12-18T15:47:46;-1.60;1.00
8253;DHT22;61313;48.396;10.008;2022-12-18T15:50:12;-1.40;1.00
8253;DHT22;61313;48.396;10.008;2022-12-18T15:52:44;-1.60;1.00
8253;DHT22;61313;48.396;10.008;2022-12-18T15:55:18;-1.50;1.00
8253;DHT22;61313;48.396;10.008;2022-12-18T15:58:08;-1.70;1.00
8253;DHT22;61313;48.396;10.008;2022-12-18T16:00:35;-1.70;96.30
8253;DHT22;61313;48.396;10.008;2022-12-18T16:03:02;-1.70;1.00
8253;DHT22;61313;48.396;10.008;2022-12-18T16:05:29;-1.70;1.00
8253;DHT22;61313;48.396;10.008;2022-12-18T16:07:55;-1.80;1.00
8253;DHT22;61313;48.396;10.008;2022-12-18T16:10:20;-1.80;99.90
8253;DHT22;61313;48.396;10.008;2022-12-18T16:12:46;-1.90;52.20
8253;DHT22;61313;48.396;10.008;2022-12-18T16:15:13;-1.90;1.00
8253;DHT22;61313;48.396;10.008;2022-12-18T16:17:41;-2.20;1.00
8253;DHT22;61313;48.396;10.008;2022-12-18T16:20:13;-2.30;1.00
8253;DHT22;61313;48.396;10.008;2022-12-18T16:22:42;-2.20;1.00
8253;DHT22;61313;48.396;10.008;2022-12-18T16:25:30;-2.10;1.00
8253;DHT22;61313;48.396;10.008;2022-12-18T16:27:56;-1.90;99.90
8253;DHT22;61313;48.396;10.008;2022-12-18T16:30:24;-1.90;1.00
8253;DHT22;61313;48.396;10.008;2022-12-18T16:32:56;-2.60;1.00
8253;DHT22;61313;48.396;10.008;2022-12-18T16:35:24;-2.60;99.90
8253;DHT22;61313;48.396;10.008;2022-12-18T16:37:50;-2.60;99.90
8253;DHT22;61313;48.396;10.008;2022-12-18T16:40:17;-2.50;29.40
8253;DHT22;61313;48.396;10.008;2022-12-18T16:42:44;-2.60;99.90
8253;DHT22;61313;48.396;10.008;2022-12-18T16:45:17;-2.60;1.00
8253;DHT22;61313;48.396;10.008;2022-12-18T16:47:43;-2.80;1.00
8253;DHT22;61313;48.396;10.008;2022-12-18T16:50:10;-2.70;1.00
8253;DHT22;61313;48.396;10.008;2022-12-18T16:52:35;-2.60;99.90
8253;DHT22;61313;48.396;10.008;2022-12-18T16:55:02;-2.50;99.90
8253;DHT22;61313;48.396;10.008;2022-12-18T16:57:28;-2.50;1.00
8253;DHT22;61313;48.396;10.008;2022-12-18T16:59:53;-2.50;1.00
8253;DHT22;61313;48.396;10.008;2022-12-18T17:02:22;-2.60;1.00
8253;DHT22;61313;48.396;10.008;2022-12-18T17:04:48;-2.40;1.00
8253;DHT22;61313;48.396;10.008;2022-12-18T17:07:14;-2.50;99.90
8253;DHT22;61313;48.396;10.008;2022-12-18T17:09:41;-2.50;1.00
8253;DHT22;61313;48.396;10.008;2022-12-18T17:12:07;-2.60;1.00
8253;DHT22;61313;48.396;10.008;2022-12-18T17:14:35;-2.70;1.00
8253;DHT22;61313;48.396;10.008;2022-12-18T17:17:01;-2.60;99.90
8253;DHT22;61313;48.396;10.008;2022-12-18T17:19:28;-2.60;1.00
8253;DHT22;61313;48.396;10.008;2022-12-18T17:21:54;1.60;1.00
8253;DHT22;61313;48.396;10.008;2022-12-18T17:24:20;1.80;1.70
8253;DHT22;61313;48.396;10.008;2022-12-18T17:26:46;2.10;1.00
8253;DHT22;61313;48.396;10.008;2022-12-18T17:29:15;2.20;99.90
8253;DHT22;61313;48.396;10.008;2022-12-18T17:31:41;3.20;99.90
8253;DHT22;61313;48.396;10.008;2022-12-18T17:34:09;1.30;1.00
8253;DHT22;61313;48.396;10.008;2022-12-18T17:36:35;-0.10;1.00
8253;DHT22;61313;48.396;10.008;2022-12-18T17:39:02;-0.80;1.00
8253;DHT22;61313;48.396;10.008;2022-12-18T17:41:29;-1.30;99.90
8253;DHT22;61313;48.396;10.008;2022-12-18T17:43:59;-1.40;1.00
8253;DHT22;61313;48.396;10.008;2022-12-18T17:46:27;-1.40;1.00
8253;DHT22;61313;48.396;10.008;2022-12-18T17:49:01;-1.50;1.00
8253;DHT22;61313;48.396;10.008;2022-12-18T17:51:28;-1.40;1.00
8253;DHT22;61313;48.396;10.008;2022-12-18T17:53:54;-1.60;1.00
8253;DHT22;61313;48.396;10.008;2022-12-18T17:56:21;-1.60;1.00
8253;DHT22;61313;48.396;10.008;2022-12-18T17:58:47;-1.50;1.00
8253;DHT22;61313;48.396;10.008;2022-12-18T18:01:16;-1.60;1.00
8253;DHT22;61313;48.396;10.008;2022-12-18T18:03:42;-1.70;1.00
